createdAt,value
2016-11-29T00:01:53.127Z,94.9
2016-11-29T00:02:54.571Z,94.9
2016-11-29T00:03:56.008Z,94.9
2016-11-29T00:04:57.447Z,94.9
2016-11-29T00:05:58.886Z,94.9
2016-11-29T00:07:00.328Z,94.9
2016-11-29T00:08:01.795Z,94.9
2016-11-29T00:09:02.727Z,94.9
2016-11-29T00:10:04.164Z,94.9
2016-11-29T00:11:05.604Z,94.9
2016-11-29T00:12:07.044Z,94.9
2016-11-29T00:13:08.478Z,94.9
2016-11-29T00:14:09.914Z,94.9
2016-11-29T00:16:12.748Z,94.9
2016-11-29T00:17:14.181Z,94.9
2016-11-29T00:18:15.618Z,94.9
2016-11-29T00:19:16.552Z,94.9
2016-11-29T00:20:18.073Z,94.9
2016-11-29T00:21:19.504Z,94.9
2016-11-29T00:22:20.937Z,94.9
2016-11-29T00:23:22.373Z,94.9
2016-11-29T00:24:23.808Z,94.9
2016-11-29T00:25:25.251Z,94.9
2016-11-29T00:27:28.087Z,94.9
2016-11-29T00:28:29.017Z,94.9
2016-11-29T00:29:30.589Z,94.9
2016-11-29T00:30:32.024Z,94.9
2016-11-29T00:31:33.461Z,94.9
2016-11-29T00:33:36.307Z,94.9
2016-11-29T00:34:37.740Z,94.9
2016-11-29T00:35:38.677Z,94.9
2016-11-29T00:36:40.115Z,94.9
2016-11-29T00:37:41.548Z,94.9
2016-11-29T00:38:42.982Z,94.9
2016-11-29T00:39:44.421Z,94.9
2016-11-29T00:41:47.392Z,94.9
2016-11-29T00:42:48.834Z,94.9
2016-11-29T00:43:49.766Z,94.9
2016-11-29T00:44:51.199Z,94.9
2016-11-29T00:45:52.632Z,94.9
2016-11-29T00:46:54.066Z,94.9
2016-11-29T00:47:55.502Z,94.9
2016-11-29T00:48:56.941Z,94.9
2016-11-29T00:49:58.378Z,94.9
2016-11-29T00:50:59.816Z,94.9
2016-11-29T00:52:00.758Z,94.9
2016-11-29T00:53:02.197Z,94.9
2016-11-29T00:54:03.627Z,94.9
2016-11-29T00:55:05.063Z,94.9
2016-11-29T00:56:06.511Z,94.9
2016-11-29T00:57:07.951Z,94.9
2016-11-29T00:58:09.382Z,94.9
2016-11-29T00:59:10.816Z,94.9
2016-11-29T01:00:12.247Z,94.9
2016-11-29T01:01:13.179Z,94.9
2016-11-29T01:02:14.611Z,94.9
2016-11-29T01:03:16.048Z,94.9
2016-11-29T01:04:17.478Z,94.9
2016-11-29T01:05:18.911Z,94.9
2016-11-29T01:06:20.350Z,94.9
2016-11-29T01:07:21.786Z,94.9
2016-11-29T01:08:23.226Z,94.9
2016-11-29T01:09:24.657Z,94.9
2016-11-29T01:10:25.588Z,94.9
2016-11-29T01:11:27.022Z,95
2016-11-29T01:12:28.457Z,95
2016-11-29T01:13:29.883Z,95
2016-11-29T01:14:31.319Z,95
2016-11-29T01:15:32.753Z,95
2016-11-29T01:16:34.185Z,95
2016-11-29T01:17:35.621Z,95
2016-11-29T01:18:37.059Z,95
2016-11-29T01:19:37.991Z,95
2016-11-29T01:20:39.426Z,95
2016-11-29T01:21:40.862Z,95
2016-11-29T01:22:42.297Z,95
2016-11-29T01:23:43.733Z,95
2016-11-29T01:24:45.164Z,95
2016-11-29T01:25:46.601Z,95
2016-11-29T01:26:48.033Z,95
2016-11-29T01:27:49.475Z,95
2016-11-29T01:28:50.407Z,95
2016-11-29T01:29:51.838Z,95
2016-11-29T01:30:53.277Z,95
2016-11-29T01:31:54.713Z,95
2016-11-29T01:32:56.148Z,95
2016-11-29T01:33:57.583Z,95
2016-11-29T01:34:59.027Z,95
2016-11-29T01:36:00.465Z,95
2016-11-29T01:37:01.405Z,95
2016-11-29T01:38:02.941Z,95
2016-11-29T01:39:04.391Z,95
2016-11-29T01:42:08.627Z,95
2016-11-29T01:43:10.070Z,95
2016-11-29T01:44:11.003Z,95
2016-11-29T01:45:12.444Z,95
2016-11-29T01:46:13.882Z,95
2016-11-29T01:47:15.347Z,95
2016-11-29T01:48:16.789Z,95
2016-11-29T01:49:18.219Z,95
2016-11-29T01:50:19.654Z,95
2016-11-29T01:52:21.984Z,95
2016-11-29T01:53:23.415Z,95
2016-11-29T01:54:24.847Z,95
2016-11-29T01:55:26.286Z,95
2016-11-29T01:56:27.722Z,95
2016-11-29T01:57:29.166Z,95
2016-11-29T01:58:30.739Z,95
2016-11-29T01:59:31.679Z,95
2016-11-29T02:00:33.140Z,95
2016-11-29T02:01:34.586Z,95
2016-11-29T02:02:36.016Z,95
2016-11-29T02:03:37.455Z,95
2016-11-29T02:04:38.888Z,95
2016-11-29T02:05:39.829Z,95
2016-11-29T02:06:41.258Z,95
2016-11-29T02:07:42.690Z,95
2016-11-29T02:08:44.121Z,95
2016-11-29T02:09:45.555Z,95
2016-11-29T02:10:47.013Z,95
2016-11-29T02:11:48.441Z,95
2016-11-29T02:12:49.878Z,95
2016-11-29T02:13:50.807Z,95
2016-11-29T02:14:52.243Z,95
2016-11-29T02:15:53.678Z,95
2016-11-29T02:16:55.111Z,95
2016-11-29T02:17:56.551Z,94.9
2016-11-29T02:18:57.990Z,95
2016-11-29T02:19:59.427Z,95
2016-11-29T02:22:01.769Z,95
2016-11-29T02:23:03.208Z,95
2016-11-29T02:24:04.633Z,94.9
2016-11-29T02:25:06.072Z,94.9
2016-11-29T02:26:07.546Z,95
2016-11-29T02:27:08.986Z,95
2016-11-29T02:28:10.422Z,95
2016-11-29T02:29:11.349Z,95
2016-11-29T02:30:12.783Z,94.9
2016-11-29T02:31:14.216Z,95
2016-11-29T02:33:17.051Z,95
2016-11-29T02:34:18.485Z,95
2016-11-29T02:35:19.922Z,95
2016-11-29T02:36:21.355Z,95
2016-11-29T02:37:22.286Z,94.9
2016-11-29T02:38:23.720Z,94.9
2016-11-29T02:39:25.155Z,95
2016-11-29T02:40:26.592Z,95
2016-11-29T02:41:28.033Z,95.1
2016-11-29T02:42:29.467Z,95.1
2016-11-29T02:43:30.901Z,95.2
2016-11-29T02:44:32.340Z,95.2
2016-11-29T02:45:33.274Z,95.3
2016-11-29T02:46:34.711Z,95.3
2016-11-29T02:47:36.149Z,95.3
2016-11-29T02:48:37.589Z,95.3
2016-11-29T02:49:39.023Z,95.3
2016-11-29T02:50:40.457Z,95.4
2016-11-29T02:51:41.891Z,95.4
2016-11-29T02:52:42.819Z,95.4
2016-11-29T02:53:44.258Z,95.4
2016-11-29T02:54:45.697Z,95.4
2016-11-29T02:55:47.265Z,95.4
2016-11-29T02:56:48.703Z,95.4
2016-11-29T02:57:49.638Z,95.4
2016-11-29T02:58:51.071Z,95.4
2016-11-29T02:59:52.507Z,95.4
2016-11-29T03:00:53.938Z,95.4
2016-11-29T03:02:56.920Z,95.4
2016-11-29T03:03:57.850Z,95.4
2016-11-29T03:04:59.290Z,95.4
2016-11-29T03:06:00.736Z,95.4
2016-11-29T03:07:02.175Z,95.4
2016-11-29T03:09:05.010Z,95.4
2016-11-29T03:10:06.450Z,95.4
2016-11-29T03:11:07.385Z,95.4
2016-11-29T03:12:08.824Z,95.4
2016-11-29T03:14:11.655Z,95.4
2016-11-29T03:15:13.087Z,95.4
2016-11-29T03:16:14.521Z,95.4
2016-11-29T03:18:17.362Z,95.4
2016-11-29T03:19:18.291Z,95.4
2016-11-29T03:20:19.724Z,95.4
2016-11-29T03:21:21.166Z,95.4
2016-11-29T03:22:22.597Z,95.4
2016-11-29T03:23:24.031Z,95.4
2016-11-29T03:24:25.466Z,95.3
2016-11-29T03:25:26.897Z,95.3
2016-11-29T03:26:27.831Z,95.3
2016-11-29T03:27:29.270Z,95.3
2016-11-29T03:28:30.705Z,95.3
2016-11-29T03:29:32.131Z,95.2
2016-11-29T03:30:33.561Z,95.2
2016-11-29T03:31:34.985Z,95.2
2016-11-29T03:32:36.415Z,95.2
2016-11-29T03:33:37.847Z,95.2
2016-11-29T03:34:38.783Z,95.2
2016-11-29T03:35:40.215Z,95.2
2016-11-29T03:36:41.648Z,95.2
2016-11-29T03:37:43.089Z,95.1
2016-11-29T03:38:44.517Z,95.1
2016-11-29T03:39:45.954Z,95.1
2016-11-29T03:40:47.385Z,95.1
2016-11-29T03:43:51.116Z,95.1
2016-11-29T03:44:52.545Z,95.1
2016-11-29T03:45:53.976Z,95.1
2016-11-29T03:46:55.400Z,95.1
2016-11-29T03:47:56.831Z,95.1
2016-11-29T03:48:57.943Z,95.1
2016-11-29T03:49:59.377Z,95.1
2016-11-29T03:51:00.946Z,95.1
2016-11-29T03:52:02.521Z,95.1
2016-11-29T03:53:03.446Z,95.1
2016-11-29T03:56:07.684Z,95.1
2016-11-29T03:57:09.116Z,95.1
2016-11-29T03:58:10.550Z,95.1
2016-11-29T03:59:11.483Z,95.1
2016-11-29T04:00:12.920Z,95.1
2016-11-29T04:01:14.353Z,95.1
2016-11-29T04:02:15.788Z,95.1
2016-11-29T04:03:17.221Z,95.1
2016-11-29T04:04:18.661Z,95.1
2016-11-29T04:05:20.091Z,95.1
2016-11-29T04:06:21.018Z,95.1
2016-11-29T04:07:22.451Z,95.1
2016-11-29T04:08:23.885Z,95.1
2016-11-29T04:09:25.313Z,95.1
2016-11-29T04:10:26.744Z,95.1
2016-11-29T04:11:28.182Z,95.1
2016-11-29T04:12:29.618Z,95.1
2016-11-29T04:13:30.549Z,95.1
2016-11-29T04:14:31.981Z,95.1
2016-11-29T04:15:33.416Z,95.1
2016-11-29T04:16:34.845Z,95.1
2016-11-29T04:17:36.281Z,95.1
2016-11-29T04:19:39.114Z,95.1
2016-11-29T04:20:40.545Z,95.1
2016-11-29T04:21:41.473Z,95.1
2016-11-29T04:22:42.904Z,95.1
2016-11-29T04:23:44.336Z,95.1
2016-11-29T04:25:47.170Z,95.1
2016-11-29T04:26:48.605Z,95.1
2016-11-29T04:27:50.037Z,95.1
2016-11-29T04:28:50.966Z,95.1
2016-11-29T04:29:52.405Z,95.1
2016-11-29T04:30:53.835Z,95
2016-11-29T04:31:55.266Z,95
2016-11-29T04:32:56.699Z,95
2016-11-29T04:33:58.127Z,95
2016-11-29T04:36:00.459Z,95
2016-11-29T04:37:01.900Z,95
2016-11-29T04:38:03.334Z,95
2016-11-29T04:39:04.774Z,95
2016-11-29T04:40:06.211Z,95
2016-11-29T04:41:07.648Z,95
2016-11-29T04:42:09.077Z,95
2016-11-29T04:43:10.007Z,95
2016-11-29T04:44:11.446Z,95
2016-11-29T04:45:12.877Z,95
2016-11-29T04:46:14.308Z,95
2016-11-29T04:47:15.738Z,95
2016-11-29T04:48:17.170Z,95
2016-11-29T04:49:18.131Z,95
2016-11-29T04:50:19.565Z,95
2016-11-29T04:51:20.998Z,95
2016-11-29T04:53:23.826Z,95
2016-11-29T04:55:26.651Z,95
2016-11-29T04:56:28.077Z,95
2016-11-29T04:57:29.001Z,95
2016-11-29T04:58:30.433Z,95
2016-11-29T04:59:31.863Z,95
2016-11-29T05:00:33.296Z,95
2016-11-29T05:01:34.728Z,95
2016-11-29T05:02:36.159Z,95
2016-11-29T05:03:37.227Z,95
2016-11-29T05:04:38.659Z,95
2016-11-29T05:05:40.091Z,95
2016-11-29T05:06:41.525Z,95
2016-11-29T05:07:42.960Z,95
2016-11-29T05:08:44.395Z,95
2016-11-29T05:09:45.324Z,95
2016-11-29T05:10:46.760Z,95
2016-11-29T05:11:48.189Z,95
2016-11-29T05:12:49.630Z,95
2016-11-29T05:13:51.064Z,95
2016-11-29T05:14:52.513Z,95
2016-11-29T05:15:53.452Z,95
2016-11-29T05:16:54.883Z,95
2016-11-29T05:17:56.315Z,95
2016-11-29T05:18:57.744Z,95
2016-11-29T05:21:00.575Z,94.9
2016-11-29T05:22:02.009Z,94.9
2016-11-29T05:23:02.936Z,94.9
2016-11-29T05:24:04.369Z,94.9
2016-11-29T05:25:05.807Z,94.9
2016-11-29T05:26:07.243Z,94.9
2016-11-29T05:27:08.678Z,94.9
2016-11-29T05:28:10.112Z,94.9
2016-11-29T05:29:11.545Z,94.9
2016-11-29T05:30:12.478Z,94.9
2016-11-29T05:31:13.908Z,94.9
2016-11-29T05:32:15.340Z,94.9
2016-11-29T05:33:16.771Z,94.9
2016-11-29T05:34:18.209Z,94.9
2016-11-29T05:35:19.645Z,94.9
2016-11-29T05:36:20.836Z,94.9
2016-11-29T05:38:23.670Z,94.9
2016-11-29T05:40:26.006Z,94.9
2016-11-29T05:41:27.434Z,94.9
2016-11-29T05:42:28.867Z,94.9
2016-11-29T05:43:30.300Z,94.8
2016-11-29T05:44:31.757Z,94.8
2016-11-29T05:45:33.198Z,94.8
2016-11-29T05:46:34.123Z,94.8
2016-11-29T05:47:35.555Z,94.8
2016-11-29T05:48:36.979Z,94.8
2016-11-29T05:49:38.411Z,94.8
2016-11-29T05:50:39.843Z,94.8
2016-11-29T05:51:41.278Z,94.8
2016-11-29T05:52:42.737Z,94.8
2016-11-29T05:53:43.667Z,94.8
2016-11-29T05:54:45.242Z,94.7
2016-11-29T05:55:46.677Z,94.7
2016-11-29T05:56:48.108Z,94.7
2016-11-29T05:57:49.034Z,94.7
2016-11-29T05:58:50.472Z,94.7
2016-11-29T05:59:51.909Z,94.7
2016-11-29T06:00:53.341Z,94.7
2016-11-29T06:01:54.773Z,94.7
2016-11-29T06:02:56.210Z,94.7
2016-11-29T06:03:57.141Z,94.7
2016-11-29T06:04:58.569Z,94.7
2016-11-29T06:06:02.749Z,94.7
2016-11-29T06:07:01.667Z,94.7
2016-11-29T06:08:02.601Z,94.7
2016-11-29T06:09:03.920Z,94.7
2016-11-29T06:10:05.276Z,94.7
2016-11-29T06:11:06.666Z,94.7
2016-11-29T06:12:08.134Z,94.7
2016-11-29T06:13:09.405Z,94.7
2016-11-29T06:14:10.902Z,94.7
2016-11-29T06:15:12.036Z,94.7
2016-11-29T06:17:14.812Z,94.7
2016-11-29T06:18:16.345Z,94.7
2016-11-29T06:19:17.503Z,94.6
2016-11-29T06:20:18.802Z,94.7
2016-11-29T06:21:20.328Z,94.6
2016-11-29T06:22:21.613Z,94.6
2016-11-29T06:23:23.176Z,94.6
2016-11-29T06:24:24.434Z,94.6
2016-11-29T06:25:25.609Z,94.6
2016-11-29T06:26:27.269Z,94.6
2016-11-29T06:27:28.700Z,94.6
2016-11-29T06:28:29.628Z,94.6
2016-11-29T06:29:31.067Z,94.6
2016-11-29T06:30:32.631Z,94.6
2016-11-29T06:31:34.062Z,94.6
2016-11-29T06:32:35.495Z,94.6
2016-11-29T06:33:36.424Z,94.6
2016-11-29T06:35:39.256Z,94.6
2016-11-29T06:36:40.691Z,94.6
2016-11-29T06:37:42.126Z,94.6
2016-11-29T06:38:43.555Z,94.6
2016-11-29T06:39:44.480Z,94.6
2016-11-29T06:40:45.917Z,94.6
2016-11-29T06:41:47.347Z,94.6
2016-11-29T06:42:48.780Z,94.6
2016-11-29T06:43:50.212Z,94.6
2016-11-29T06:44:51.649Z,94.6
2016-11-29T06:45:52.576Z,94.6
2016-11-29T06:46:54.010Z,94.6
2016-11-29T06:47:55.439Z,94.6
2016-11-29T06:48:56.877Z,94.6
2016-11-29T06:50:59.713Z,94.6
2016-11-29T06:52:01.145Z,94.6
2016-11-29T06:53:02.072Z,94.6
2016-11-29T06:54:03.505Z,94.6
2016-11-29T06:55:04.939Z,94.6
2016-11-29T06:56:06.369Z,94.5
2016-11-29T06:57:07.804Z,94.5
2016-11-29T06:58:09.238Z,94.5
2016-11-29T06:59:10.164Z,94.5
2016-11-29T07:00:11.601Z,94.5
2016-11-29T07:01:13.029Z,94.5
2016-11-29T07:02:14.459Z,94.5
2016-11-29T07:03:15.897Z,94.5
2016-11-29T07:04:17.326Z,94.5
2016-11-29T07:06:19.788Z,94.5
2016-11-29T07:07:21.220Z,94.5
2016-11-29T07:09:24.052Z,94.5
2016-11-29T07:10:24.988Z,94.5
2016-11-29T07:11:26.424Z,94.5
2016-11-29T07:12:27.856Z,94.5
2016-11-29T07:13:29.285Z,94.5
2016-11-29T07:14:30.724Z,94.5
2016-11-29T07:15:32.162Z,94.5
2016-11-29T07:17:34.498Z,94.5
2016-11-29T07:18:35.936Z,94.5
2016-11-29T07:19:37.369Z,94.5
2016-11-29T07:20:38.801Z,94.4
2016-11-29T07:21:40.237Z,94.4
2016-11-29T07:22:41.165Z,94.4
2016-11-29T07:23:42.598Z,94.4
2016-11-29T07:25:45.385Z,94.4
2016-11-29T07:26:46.816Z,94.4
2016-11-29T07:27:48.243Z,94.4
2016-11-29T07:28:49.676Z,94.4
2016-11-29T07:29:51.113Z,94.4
2016-11-29T07:30:52.042Z,94.4
2016-11-29T07:31:53.473Z,94.4
2016-11-29T07:32:54.910Z,94.4
2016-11-29T07:33:56.348Z,94.4
2016-11-29T07:34:57.782Z,94.4
2016-11-29T07:35:59.216Z,94.4
2016-11-29T07:37:00.143Z,94.3
2016-11-29T07:38:02.034Z,94.3
2016-11-29T07:39:02.958Z,94.3
2016-11-29T07:40:04.529Z,94.3
2016-11-29T07:41:05.597Z,94.3
2016-11-29T07:42:07.032Z,94.3
2016-11-29T07:44:09.860Z,94.3
2016-11-29T07:45:11.292Z,94.3
2016-11-29T07:47:13.620Z,94.2
2016-11-29T07:48:15.060Z,94.2
2016-11-29T07:49:16.492Z,94.2
2016-11-29T07:52:20.724Z,94.2
2016-11-29T07:53:22.160Z,94.2
2016-11-29T07:54:23.088Z,94.2
2016-11-29T07:55:24.519Z,94.2
2016-11-29T07:56:25.951Z,94.2
2016-11-29T07:57:27.379Z,94.2
2016-11-29T07:59:30.214Z,94.2
2016-11-29T08:00:31.640Z,94.1
2016-11-29T08:01:33.078Z,94.1
2016-11-29T08:02:34.007Z,94.1
2016-11-29T08:03:35.440Z,94.1
2016-11-29T08:04:36.874Z,94.1
2016-11-29T08:06:39.709Z,94.1
2016-11-29T08:07:41.139Z,94.1
2016-11-29T08:08:42.569Z,94.1
2016-11-29T08:09:43.506Z,94.1
2016-11-29T08:10:44.938Z,94.1
2016-11-29T08:11:46.402Z,94.1
2016-11-29T08:12:47.838Z,94.1
2016-11-29T08:13:49.272Z,94.1
2016-11-29T08:14:50.705Z,94.1
2016-11-29T08:15:51.648Z,94.1
2016-11-29T08:17:54.617Z,94.1
2016-11-29T08:18:56.044Z,94.1
2016-11-29T08:19:57.477Z,94.1
2016-11-29T08:20:58.912Z,94.1
2016-11-29T08:21:59.840Z,94.1
2016-11-29T08:23:01.272Z,94.1
2016-11-29T08:24:02.702Z,94.1
2016-11-29T08:25:04.184Z,94.1
2016-11-29T08:26:05.617Z,94.1
2016-11-29T08:27:07.053Z,94.1
2016-11-29T08:29:09.617Z,94.1
2016-11-29T08:30:11.052Z,94
2016-11-29T08:31:12.483Z,94.1
2016-11-29T08:32:13.914Z,94
2016-11-29T08:33:14.843Z,94
2016-11-29T08:34:16.323Z,94
2016-11-29T08:35:17.751Z,94
2016-11-29T08:36:19.191Z,94
2016-11-29T08:37:20.626Z,94
2016-11-29T08:38:22.058Z,94
2016-11-29T08:40:24.385Z,94
2016-11-29T08:41:25.818Z,94
2016-11-29T08:42:27.249Z,94
2016-11-29T08:43:28.682Z,94
2016-11-29T08:44:30.119Z,94
2016-11-29T08:45:31.556Z,94
2016-11-29T08:46:32.985Z,94
2016-11-29T08:47:33.934Z,94
2016-11-29T08:48:35.366Z,94
2016-11-29T08:49:36.800Z,94
2016-11-29T08:50:38.238Z,94
2016-11-29T08:51:39.677Z,94
2016-11-29T08:52:41.106Z,94
2016-11-29T08:53:42.545Z,94
2016-11-29T08:54:43.476Z,94
2016-11-29T08:55:44.907Z,94
2016-11-29T08:56:46.342Z,94
2016-11-29T08:57:47.840Z,94
2016-11-29T08:58:49.274Z,94
2016-11-29T08:59:50.704Z,94
2016-11-29T09:00:51.629Z,94
2016-11-29T09:01:53.061Z,94
2016-11-29T09:02:54.625Z,94
2016-11-29T09:03:56.058Z,94
2016-11-29T09:04:57.490Z,94
2016-11-29T09:05:58.919Z,94
2016-11-29T09:08:01.249Z,94
2016-11-29T09:09:02.683Z,94
2016-11-29T09:10:04.116Z,94
2016-11-29T09:11:05.579Z,94
2016-11-29T09:12:07.013Z,94
2016-11-29T09:13:08.445Z,93.9
2016-11-29T09:14:09.376Z,93.9
2016-11-29T09:15:10.817Z,93.9
2016-11-29T09:16:12.256Z,94
2016-11-29T09:17:13.693Z,93.9
2016-11-29T09:18:15.123Z,93.9
2016-11-29T09:20:17.961Z,93.9
2016-11-29T09:21:18.890Z,93.9
2016-11-29T09:22:20.326Z,93.9
2016-11-29T09:23:21.757Z,93.9
2016-11-29T09:24:23.195Z,93.9
2016-11-29T09:25:24.626Z,93.9
2016-11-29T09:27:27.459Z,93.9
2016-11-29T09:28:28.892Z,93.9
2016-11-29T09:29:29.820Z,93.9
2016-11-29T09:30:31.251Z,93.9
2016-11-29T09:31:32.691Z,93.9
2016-11-29T09:32:34.136Z,93.9
2016-11-29T09:33:35.569Z,93.9
2016-11-29T09:34:36.998Z,93.9
2016-11-29T09:35:38.429Z,93.9
2016-11-29T09:36:39.356Z,93.9
2016-11-29T09:37:40.800Z,93.9
2016-11-29T09:38:42.232Z,93.9
2016-11-29T09:39:43.669Z,93.9
2016-11-29T09:40:45.094Z,93.9
2016-11-29T09:43:49.324Z,93.9
2016-11-29T09:44:50.756Z,93.9
2016-11-29T09:45:51.693Z,93.9
2016-11-29T09:46:53.135Z,93.9
2016-11-29T09:47:54.565Z,93.8
2016-11-29T09:48:55.998Z,93.8
2016-11-29T09:49:57.433Z,93.8
2016-11-29T09:50:58.867Z,93.8
2016-11-29T09:52:00.302Z,93.8
2016-11-29T09:53:01.230Z,93.8
2016-11-29T09:55:04.066Z,93.8
2016-11-29T09:56:05.500Z,93.8
2016-11-29T09:57:06.931Z,93.8
2016-11-29T09:58:08.369Z,93.8
2016-11-29T09:59:09.802Z,93.8
2016-11-29T10:00:11.233Z,93.8
2016-11-29T10:01:12.292Z,93.8
2016-11-29T10:02:13.728Z,93.8
2016-11-29T10:03:15.153Z,93.8
2016-11-29T10:04:16.580Z,93.8
2016-11-29T10:05:18.239Z,93.8
2016-11-29T10:06:19.106Z,93.8
2016-11-29T10:07:20.544Z,93.8
2016-11-29T10:08:21.979Z,93.8
2016-11-29T10:09:23.411Z,93.8
2016-11-29T10:10:24.841Z,93.8
2016-11-29T10:11:26.271Z,93.8
2016-11-29T10:12:27.264Z,93.8
2016-11-29T10:13:28.689Z,93.8
2016-11-29T10:14:30.120Z,93.8
2016-11-29T10:15:31.545Z,93.8
2016-11-29T10:16:32.978Z,93.8
2016-11-29T10:17:34.409Z,93.8
2016-11-29T10:18:35.842Z,93.8
2016-11-29T10:19:36.768Z,93.8
2016-11-29T10:20:38.197Z,93.8
2016-11-29T10:21:39.630Z,93.8
2016-11-29T10:22:41.211Z,93.8
2016-11-29T10:24:44.052Z,93.8
2016-11-29T10:25:44.986Z,93.8
2016-11-29T10:26:46.431Z,93.7
2016-11-29T10:27:47.863Z,93.7
2016-11-29T10:28:49.297Z,93.7
2016-11-29T10:29:50.735Z,93.7
2016-11-29T10:30:52.167Z,93.7
2016-11-29T10:31:54.297Z,93.7
2016-11-29T10:32:54.726Z,93.7
2016-11-29T10:33:56.162Z,93.7
2016-11-29T10:35:58.994Z,93.7
2016-11-29T10:37:00.421Z,93.7
2016-11-29T10:38:01.855Z,93.7
2016-11-29T10:39:02.783Z,93.7
2016-11-29T10:40:04.215Z,93.7
2016-11-29T10:41:05.675Z,93.7
2016-11-29T10:42:07.113Z,93.7
2016-11-29T10:43:08.544Z,93.7
2016-11-29T10:44:10.005Z,93.7
2016-11-29T10:45:11.447Z,93.7
2016-11-29T10:46:12.376Z,93.7
2016-11-29T10:47:13.811Z,93.7
2016-11-29T10:48:15.242Z,93.7
2016-11-29T10:49:16.680Z,93.7
2016-11-29T10:51:19.514Z,93.7
2016-11-29T10:52:20.951Z,93.7
2016-11-29T10:53:22.383Z,93.7
2016-11-29T10:56:26.118Z,93.7
2016-11-29T10:57:27.550Z,93.7
2016-11-29T10:58:28.979Z,93.7
2016-11-29T10:59:30.414Z,93.7
2016-11-29T11:00:31.849Z,93.7
2016-11-29T11:01:33.285Z,93.7
2016-11-29T11:02:34.722Z,93.7
2016-11-29T11:03:35.786Z,93.7
2016-11-29T11:04:37.215Z,93.7
2016-11-29T11:05:38.654Z,93.6
2016-11-29T11:06:40.081Z,93.7
2016-11-29T11:07:41.510Z,93.7
2016-11-29T11:08:42.947Z,93.7
2016-11-29T11:09:44.380Z,93.6
2016-11-29T11:10:45.805Z,93.6
2016-11-29T11:11:46.731Z,93.6
2016-11-29T11:12:48.163Z,93.6
2016-11-29T11:13:49.602Z,93.6
2016-11-29T11:14:51.041Z,93.6
2016-11-29T11:15:52.476Z,93.6
2016-11-29T11:16:53.904Z,93.6
2016-11-29T11:17:55.336Z,93.6
2016-11-29T11:18:56.766Z,93.6
2016-11-29T11:19:58.198Z,93.6
2016-11-29T11:20:59.125Z,93.6
2016-11-29T11:22:00.558Z,93.6
2016-11-29T11:23:01.989Z,93.6
2016-11-29T11:24:03.419Z,93.6
2016-11-29T11:25:04.849Z,93.6
2016-11-29T11:26:06.287Z,93.6
2016-11-29T11:27:07.787Z,93.6
2016-11-29T11:28:09.218Z,93.6
2016-11-29T11:29:10.146Z,93.6
2016-11-29T11:30:11.572Z,93.6
2016-11-29T11:31:13.007Z,93.6
2016-11-29T11:32:14.440Z,93.6
2016-11-29T11:33:15.873Z,93.6
2016-11-29T11:35:18.706Z,93.6
2016-11-29T11:36:20.138Z,93.6
2016-11-29T11:37:21.569Z,93.6
2016-11-29T11:38:23.003Z,93.6
2016-11-29T11:39:23.942Z,93.6
2016-11-29T11:40:25.383Z,93.6
2016-11-29T11:41:26.811Z,93.6
2016-11-29T11:42:28.241Z,93.6
2016-11-29T11:43:29.671Z,93.6
2016-11-29T11:44:31.120Z,93.6
2016-11-29T11:45:32.548Z,93.6
2016-11-29T11:46:33.984Z,93.6
2016-11-29T11:47:34.918Z,93.6
2016-11-29T11:48:36.347Z,93.6
2016-11-29T11:49:37.806Z,93.6
2016-11-29T11:50:39.432Z,93.6
2016-11-29T11:51:40.867Z,93.6
2016-11-29T11:52:42.298Z,93.6
2016-11-29T11:53:43.233Z,93.6
2016-11-29T11:54:44.663Z,93.6
2016-11-29T11:55:46.090Z,93.6
2016-11-29T11:56:47.543Z,93.6
2016-11-29T11:57:48.978Z,93.6
2016-11-29T11:58:50.438Z,93.6
2016-11-29T11:59:51.868Z,93.6
2016-11-29T12:00:53.299Z,93.6
2016-11-29T12:01:54.730Z,93.6
2016-11-29T12:02:55.659Z,93.6
2016-11-29T12:04:58.489Z,93.6
2016-11-29T12:05:59.918Z,93.6
2016-11-29T12:07:01.385Z,93.6
2016-11-29T12:08:02.954Z,93.6
2016-11-29T12:09:04.387Z,93.6
2016-11-29T12:10:05.316Z,93.6
2016-11-29T12:11:06.751Z,93.6
2016-11-29T12:12:08.182Z,93.6
2016-11-29T12:13:09.617Z,93.6
2016-11-29T12:14:11.056Z,93.6
2016-11-29T12:15:12.485Z,93.6
2016-11-29T12:16:13.920Z,93.6
2016-11-29T12:17:15.367Z,93.6
2016-11-29T12:19:18.209Z,93.6
2016-11-29T12:20:19.131Z,93.6
2016-11-29T12:21:20.563Z,93.6
2016-11-29T12:22:21.999Z,93.6
2016-11-29T12:23:23.431Z,93.5
2016-11-29T12:24:24.867Z,93.5
2016-11-29T12:25:26.298Z,93.5
2016-11-29T12:26:27.734Z,93.5
2016-11-29T12:27:29.167Z,93.5
2016-11-29T12:28:30.599Z,93.5
2016-11-29T12:29:32.029Z,93.5
2016-11-29T12:30:32.959Z,93.5
2016-11-29T12:31:34.393Z,93.5
2016-11-29T12:32:35.831Z,93.5
2016-11-29T12:34:38.657Z,93.5
2016-11-29T12:35:40.092Z,93.5
2016-11-29T12:36:41.530Z,93.5
2016-11-29T12:37:42.963Z,93.5
2016-11-29T12:38:44.410Z,93.5
2016-11-29T12:39:45.865Z,93.5
2016-11-29T12:40:46.802Z,93.5
2016-11-29T12:41:48.247Z,93.5
2016-11-29T12:42:49.688Z,93.5
2016-11-29T12:43:51.129Z,93.5
2016-11-29T12:44:52.561Z,93.5
2016-11-29T12:45:53.994Z,93.5
2016-11-29T12:46:55.436Z,93.5
2016-11-29T12:47:56.871Z,93.5
2016-11-29T12:48:58.312Z,93.5
2016-11-29T12:49:59.745Z,93.5
2016-11-29T12:51:00.673Z,93.5
2016-11-29T12:53:03.509Z,93.5
2016-11-29T12:54:04.936Z,93.5
2016-11-29T12:55:06.367Z,93.5
2016-11-29T12:56:07.811Z,93.5
2016-11-29T12:57:09.245Z,93.5
2016-11-29T12:58:10.678Z,93.5
2016-11-29T12:59:12.107Z,93.5
2016-11-29T13:00:13.537Z,93.5
2016-11-29T13:01:14.968Z,93.5
2016-11-29T13:02:15.895Z,93.5
2016-11-29T13:03:17.324Z,93.5
2016-11-29T13:05:20.159Z,93.5
2016-11-29T13:06:21.588Z,93.5
2016-11-29T13:07:23.023Z,93.5
2016-11-29T13:08:24.461Z,93.5
2016-11-29T13:09:25.896Z,93.5
2016-11-29T13:11:28.721Z,93.5
2016-11-29T13:12:30.154Z,93.5
2016-11-29T13:13:31.588Z,93.5
2016-11-29T13:14:33.023Z,93.5
2016-11-29T13:15:33.953Z,93.5
2016-11-29T13:16:35.392Z,93.5
2016-11-29T13:17:36.819Z,93.5
2016-11-29T13:18:38.250Z,93.5
2016-11-29T13:19:39.679Z,93.5
2016-11-29T13:20:41.108Z,93.5
2016-11-29T13:21:42.544Z,93.5
2016-11-29T13:22:43.976Z,93.5
2016-11-29T13:23:45.408Z,93.5
2016-11-29T13:24:46.846Z,93.5
2016-11-29T13:25:48.281Z,93.5
2016-11-29T13:26:49.214Z,93.5
2016-11-29T13:27:50.648Z,93.5
2016-11-29T13:28:52.076Z,93.5
2016-11-29T13:29:53.508Z,93.5
2016-11-29T13:30:54.975Z,93.5
2016-11-29T13:31:56.402Z,93.5
2016-11-29T13:32:57.836Z,93.5
2016-11-29T13:33:59.265Z,93.5
2016-11-29T13:35:00.696Z,93.5
2016-11-29T13:36:02.130Z,93.5
2016-11-29T13:37:03.058Z,93.6
2016-11-29T13:38:04.489Z,93.6
2016-11-29T13:39:05.933Z,93.5
2016-11-29T13:40:07.497Z,93.5
2016-11-29T13:41:08.933Z,93.6
2016-11-29T13:42:10.392Z,93.6
2016-11-29T13:43:11.820Z,93.6
2016-11-29T13:44:13.259Z,93.6
2016-11-29T13:45:14.188Z,93.6
2016-11-29T13:46:15.623Z,93.6
2016-11-29T13:47:17.056Z,93.6
2016-11-29T13:48:18.493Z,93.6
2016-11-29T13:49:19.924Z,93.6
2016-11-29T13:51:22.756Z,93.6
2016-11-29T13:52:24.322Z,93.6
2016-11-29T13:53:25.760Z,93.6
2016-11-29T13:54:26.692Z,93.6
2016-11-29T13:55:28.136Z,93.6
2016-11-29T13:56:29.571Z,93.6
2016-11-29T13:57:31.016Z,93.6
2016-11-29T13:58:32.461Z,93.6
2016-11-29T13:59:33.900Z,93.6
2016-11-29T14:00:35.336Z,93.6
2016-11-29T14:01:36.768Z,93.6
2016-11-29T14:02:38.199Z,93.6
2016-11-29T14:03:39.636Z,93.6
2016-11-29T14:04:40.573Z,93.6
2016-11-29T14:06:43.404Z,93.6
2016-11-29T14:07:44.837Z,93.6
2016-11-29T14:08:46.276Z,93.6
2016-11-29T14:09:47.707Z,93.6
2016-11-29T14:10:49.148Z,93.6
2016-11-29T14:11:50.582Z,93.6
2016-11-29T14:12:52.016Z,93.6
2016-11-29T14:13:53.446Z,93.6
2016-11-29T14:14:54.877Z,93.6
2016-11-29T14:15:55.811Z,93.6
2016-11-29T14:16:57.243Z,93.6
2016-11-29T14:17:58.679Z,93.6
2016-11-29T14:19:00.108Z,93.6
2016-11-29T14:20:01.545Z,93.6
2016-11-29T14:21:02.977Z,93.6
2016-11-29T14:22:04.416Z,93.6
2016-11-29T14:23:05.847Z,93.6
2016-11-29T14:24:07.285Z,93.6
2016-11-29T14:25:08.723Z,93.6
2016-11-29T14:26:10.153Z,93.6
2016-11-29T14:27:11.088Z,93.6
2016-11-29T14:28:12.655Z,93.6
2016-11-29T14:29:14.089Z,93.6
2016-11-29T14:30:15.521Z,93.6
2016-11-29T14:31:16.960Z,93.6
2016-11-29T14:32:18.394Z,93.6
2016-11-29T14:33:19.828Z,93.6
2016-11-29T14:34:21.258Z,93.6
2016-11-29T14:36:23.581Z,93.6
2016-11-29T14:37:25.020Z,93.6
2016-11-29T14:38:26.465Z,93.6
2016-11-29T14:39:27.899Z,93.6
2016-11-29T14:40:29.327Z,93.6
2016-11-29T14:41:30.750Z,93.6
2016-11-29T14:42:32.179Z,93.6
2016-11-29T14:43:33.619Z,93.6
2016-11-29T14:44:35.052Z,93.6
2016-11-29T14:45:36.046Z,93.7
2016-11-29T14:46:37.482Z,93.7
2016-11-29T14:47:38.921Z,93.7
2016-11-29T14:48:40.352Z,93.7
2016-11-29T14:49:41.783Z,93.7
2016-11-29T14:50:43.218Z,93.7
2016-11-29T14:51:44.700Z,93.7
2016-11-29T14:52:46.133Z,93.7